createdAt,value
2022-09-01T00:00:15.298Z,10.30
2022-09-01T00:05:19.292Z,9.50
2022-09-01T00:10:22.550Z,8.13
2022-09-01T00:15:26.177Z,9.47
2022-09-01T00:20:30.255Z,7.93
2022-09-01T00:25:33.197Z,10.47
2022-09-01T00:30:36.856Z,11.47
2022-09-01T00:35:39.907Z,8.43
2022-09-01T00:40:43.883Z,9.40
2022-09-01T00:45:47.031Z,9.63
2022-09-01T00:50:50.902Z,10.17
2022-09-01T00:55:57.863Z,10.00
2022-09-01T01:01:00.837Z,10.33
2022-09-01T01:06:09.302Z,15.10
2022-09-01T01:11:18.116Z,10.27
2022-09-01T01:16:24.419Z,10.43
2022-09-01T01:21:59.533Z,11.50
2022-09-01T01:27:03.612Z,14.30
2022-09-01T01:32:13.297Z,13.23
2022-09-01T01:37:17.182Z,11.13
2022-09-01T01:42:20.289Z,12.83
2022-09-01T01:47:23.298Z,13.23
2022-09-01T01:52:27.324Z,14.23
2022-09-01T01:57:33.433Z,11.50
2022-09-01T02:02:38.849Z,13.87
2022-09-01T02:07:43.621Z,14.03
2022-09-01T02:12:47.281Z,12.40
2022-09-01T02:17:51.111Z,10.63
2022-09-01T02:22:55.655Z,14.43
2022-09-01T02:28:00.743Z,12.63
2022-09-01T02:33:05.340Z,11.30
2022-09-01T02:38:08.846Z,12.60
2022-09-01T02:43:12.442Z,10.43
2022-09-01T02:48:16.475Z,13.20
2022-09-01T02:53:22.622Z,12.07
2022-09-01T02:58:27.203Z,11.87
2022-09-01T03:03:31.187Z,11.03
2022-09-01T03:08:36.812Z,12.80
2022-09-01T03:13:41.388Z,15.00
2022-09-01T03:18:44.372Z,12.73
2022-09-01T03:23:48.665Z,11.10
2022-09-01T03:28:52.492Z,10.60
2022-09-01T03:33:57.213Z,12.17
2022-09-01T03:39:07.398Z,10.67
2022-09-01T03:44:12.273Z,12.27
2022-09-01T03:49:17.834Z,11.57
2022-09-01T03:54:25.087Z,11.20
2022-09-01T03:59:30.248Z,11.10
2022-09-01T04:04:33.524Z,10.87
2022-09-01T04:09:37.523Z,13.77
2022-09-01T04:14:40.504Z,10.90
2022-09-01T04:19:43.553Z,14.57
2022-09-01T04:24:47.026Z,14.60
2022-09-01T04:29:54.791Z,11.90
2022-09-01T04:35:02.483Z,16.00
2022-09-01T04:40:06.376Z,11.83
2022-09-01T04:45:11.488Z,13.60
2022-09-01T04:50:18.294Z,13.40
2022-09-01T04:55:44.076Z,13.77
2022-09-01T05:00:52.346Z,14.63
2022-09-01T05:05:57.622Z,19.43
2022-09-01T05:11:03.720Z,16.07
2022-09-01T05:16:28.091Z,15.73
2022-09-01T05:21:33.493Z,13.93
2022-09-01T05:26:41.085Z,17.17
2022-09-01T05:31:50.309Z,14.90
2022-09-01T05:36:58.341Z,19.80
2022-09-01T05:42:01.928Z,24.53
2022-09-01T05:47:09.036Z,23.37
2022-09-01T05:52:12.233Z,22.10
2022-09-01T05:57:33.740Z,19.30
2022-09-01T06:02:40.365Z,19.97
2022-09-01T06:07:44.525Z,22.87
2022-09-01T06:12:50.720Z,20.63
2022-09-01T06:17:58.983Z,20.83
2022-09-01T06:23:03.262Z,28.50
2022-09-01T06:28:08.722Z,26.27
2022-09-01T06:33:14.283Z,21.53
2022-09-01T06:38:23.173Z,30.20
2022-09-01T06:43:26.183Z,22.37
2022-09-01T06:48:31.003Z,17.73
2022-09-01T06:53:40.737Z,19.97
2022-09-01T06:58:49.053Z,19.67
2022-09-01T07:03:55.763Z,15.73
2022-09-01T07:09:47.682Z,12.07
2022-09-01T07:21:02.780Z,16.53
2022-09-01T07:26:07.397Z,12.17
2022-09-01T07:48:06.993Z,8.13
2022-09-01T07:53:22.725Z,7.87
2022-09-01T07:58:29.210Z,7.80
2022-09-01T08:03:40.186Z,8.60
2022-09-01T08:08:43.339Z,9.73
2022-09-01T08:13:52.017Z,15.67
2022-09-01T08:18:55.942Z,8.57
2022-09-01T08:24:29.572Z,8.30
2022-09-01T08:29:34.649Z,8.17
2022-09-01T08:34:38.075Z,7.10
2022-09-01T08:39:41.153Z,8.40
2022-09-01T08:44:54.790Z,9.73
2022-09-01T08:50:00.267Z,8.13
2022-09-01T08:55:32.422Z,9.37
2022-09-01T09:00:43.664Z,7.80
2022-09-01T09:06:17.536Z,12.93
2022-09-01T09:11:47.738Z,6.87
2022-09-01T09:16:55.088Z,7.80
2022-09-01T09:22:01.344Z,9.87
2022-09-01T09:27:04.413Z,5.30
2022-09-01T09:32:44.925Z,5.67
2022-09-01T09:37:34.044Z,3.60
2022-09-01T09:42:59.593Z,5.50
2022-09-01T09:48:29.407Z,9.37
2022-09-01T09:53:33.134Z,3.47
2022-09-01T09:58:44.333Z,3.30
2022-09-01T10:03:50.660Z,2.47
2022-09-01T10:08:53.698Z,4.10
2022-09-01T10:13:57.137Z,3.97
2022-09-01T10:19:02.562Z,3.60
2022-09-01T10:24:31.019Z,16.37
2022-09-01T10:29:50.823Z,3.57
2022-09-01T10:34:55.830Z,5.63
2022-09-01T10:40:43.462Z,3.67
2022-09-01T10:45:53.340Z,1.63
2022-09-01T10:51:28.883Z,1.30
2022-09-01T10:56:44.188Z,2.37
2022-09-01T11:01:49.309Z,1.53
2022-09-01T11:07:50.042Z,1.50
2022-09-01T11:12:43.655Z,4.30
2022-09-01T11:17:52.792Z,4.40
2022-09-01T11:23:03.779Z,5.33
2022-09-01T11:28:17.951Z,3.00
2022-09-01T11:33:58.735Z,3.57
2022-09-01T11:39:33.574Z,15.20
2022-09-01T11:44:53.223Z,1.83
2022-09-01T11:50:22.108Z,2.27
2022-09-01T11:55:32.378Z,3.23
2022-09-01T12:00:38.681Z,2.83
2022-09-01T12:05:42.296Z,1.83
2022-09-01T12:10:48.710Z,3.73
2022-09-01T12:16:19.627Z,2.27
2022-09-01T12:21:30.847Z,2.13
2022-09-01T12:26:33.813Z,2.00
2022-09-01T12:31:40.760Z,1.87
2022-09-01T12:36:43.737Z,2.47
2022-09-01T12:42:01.086Z,1.57
2022-09-01T12:47:09.981Z,1.80
2022-09-01T12:52:22.435Z,3.20
2022-09-01T12:57:49.360Z,7.90
2022-09-01T13:03:08.147Z,8.63
2022-09-01T13:08:14.423Z,4.97
2022-09-01T13:13:18.416Z,4.87
2022-09-01T13:18:23.606Z,3.43
2022-09-01T13:23:26.863Z,5.13
2022-09-01T13:28:29.842Z,5.27
2022-09-01T13:34:09.210Z,3.23
2022-09-01T13:38:57.942Z,2.50
2022-09-01T13:44:01.158Z,3.47
2022-09-01T13:49:41.258Z,1.93
2022-09-01T13:54:27.451Z,4.17
2022-09-01T13:59:33.166Z,3.73
2022-09-01T14:04:36.281Z,11.57
2022-09-01T14:09:39.901Z,3.53
2022-09-01T14:20:09.417Z,1.80
2022-09-01T14:25:13.007Z,2.83
2022-09-01T14:30:25.710Z,2.13
2022-09-01T14:35:33.874Z,1.93
2022-09-01T14:40:38.852Z,4.37
2022-09-01T14:45:47.247Z,2.80
2022-09-01T14:50:54.428Z,1.63
2022-09-01T14:55:59.158Z,1.90
2022-09-01T15:01:17.418Z,2.77
2022-09-01T15:06:25.282Z,2.30
2022-09-01T15:11:28.686Z,2.70
2022-09-01T15:16:35.752Z,2.27
2022-09-01T15:21:40.573Z,4.00
2022-09-01T15:26:44.563Z,3.83
2022-09-01T15:31:47.586Z,6.90
2022-09-01T15:36:50.598Z,3.13
2022-09-01T15:41:54.133Z,4.70
2022-09-01T15:46:57.279Z,2.47
2022-09-01T15:52:00.343Z,4.67
2022-09-01T15:57:03.432Z,1.90
2022-09-01T16:02:07.761Z,1.97
2022-09-01T16:07:10.901Z,2.03
2022-09-01T16:12:13.833Z,2.50
2022-09-01T16:17:45.813Z,3.03
2022-09-01T16:23:10.666Z,1.63
2022-09-01T16:28:25.054Z,1.50
2022-09-01T16:33:28.059Z,3.50
2022-09-01T16:38:55.515Z,2.63
2022-09-01T16:44:02.925Z,3.00
2022-09-01T16:49:14.922Z,4.60
2022-09-01T16:54:39.407Z,6.20
2022-09-01T17:00:02.008Z,3.87
2022-09-01T17:05:33.107Z,3.07
2022-09-01T17:10:50.836Z,2.67
2022-09-01T17:16:08.418Z,3.20
2022-09-01T17:21:18.863Z,2.97
2022-09-01T17:26:28.672Z,4.13
2022-09-01T17:31:50.556Z,2.73
2022-09-01T17:37:12.113Z,2.20
2022-09-01T17:42:36.807Z,5.10
2022-09-01T17:48:01.198Z,2.60
2022-09-01T17:53:27.453Z,3.63
2022-09-01T17:58:51.856Z,4.73
2022-09-01T18:04:13.524Z,5.63
2022-09-01T18:09:18.518Z,4.67
2022-09-01T18:14:52.527Z,5.67
2022-09-01T18:20:07.266Z,3.90
2022-09-01T18:25:21.815Z,6.50
2022-09-01T18:30:42.797Z,4.70
2022-09-01T18:36:03.971Z,3.97
2022-09-01T18:41:21.973Z,5.97
2022-09-01T18:47:01.612Z,2.90
2022-09-01T18:52:29.124Z,4.93
2022-09-01T18:57:38.870Z,3.33
2022-09-01T19:03:04.946Z,4.33
2022-09-01T19:08:23.283Z,5.93
2022-09-01T19:13:43.203Z,6.37
2022-09-01T19:18:48.077Z,4.73
2022-09-01T19:24:08.397Z,3.70
2022-09-01T19:29:20.904Z,4.07
2022-09-01T19:34:41.618Z,4.13
2022-09-01T19:39:52.111Z,3.50
2022-09-01T19:45:07.248Z,5.40
2022-09-01T19:50:17.860Z,3.93
2022-09-01T19:55:44.547Z,7.23
2022-09-01T20:01:02.371Z,5.00
2022-09-01T20:06:05.395Z,5.33
2022-09-01T20:11:24.362Z,5.23
2022-09-01T20:16:46.286Z,4.00
2022-09-01T20:21:49.792Z,3.47
2022-09-01T20:27:05.326Z,13.87
2022-09-01T20:32:10.283Z,6.07
2022-09-01T20:37:38.610Z,7.23
2022-09-01T20:43:12.856Z,3.30
2022-09-01T20:48:23.478Z,3.87
2022-09-01T20:54:01.485Z,3.30
2022-09-01T20:59:26.685Z,7.97
2022-09-01T21:04:50.990Z,9.50
2022-09-01T21:10:15.524Z,6.13
2022-09-01T21:15:21.200Z,5.87
2022-09-01T21:20:45.376Z,8.90
2022-09-01T21:25:49.979Z,5.67
2022-09-01T21:30:55.291Z,5.93
2022-09-01T21:35:59.568Z,5.13
2022-09-01T21:41:04.061Z,5.33
2022-09-01T21:46:08.324Z,6.50
2022-09-01T21:51:11.378Z,4.83
2022-09-01T21:56:14.515Z,5.63
2022-09-01T22:01:17.570Z,4.83
2022-09-01T22:06:23.423Z,9.73
2022-09-01T22:11:26.423Z,8.63
2022-09-01T22:16:29.509Z,7.73
2022-09-01T22:21:32.693Z,7.40
2022-09-01T22:26:36.447Z,4.93
2022-09-01T22:31:40.141Z,4.97
2022-09-01T22:36:46.873Z,6.00
2022-09-01T22:41:49.774Z,6.30
2022-09-01T22:46:52.805Z,6.40
2022-09-01T22:51:55.745Z,7.83
2022-09-01T22:56:59.532Z,7.10
2022-09-01T23:02:02.869Z,5.10
2022-09-01T23:07:07.505Z,6.57
2022-09-01T23:12:10.434Z,7.87
2022-09-01T23:17:16.573Z,4.90
2022-09-01T23:22:19.534Z,8.00
2022-09-01T23:27:22.492Z,5.97
2022-09-01T23:32:25.675Z,3.90
2022-09-01T23:37:29.265Z,5.27
2022-09-01T23:42:32.242Z,5.33
2022-09-01T23:47:35.761Z,5.10
2022-09-01T23:52:39.582Z,9.70
2022-09-01T23:57:42.503Z,7.00
